sensor_id;sensor_type;location;lat;lon;timestamp;pressure;altitude;pressure_sealevel;temperature;humidity
20043;BME280;10182;52.896;6.496;2023-04-09T00:02:03;102593.97;;;7.86;100.00
20043;BME280;10182;52.896;6.496;2023-04-09T00:07:05;102588.72;;;7.80;100.00
20043;BME280;10182;52.896;6.496;2023-04-09T00:12:08;102595.78;;;7.78;100.00
20043;BME280;10182;52.896;6.496;2023-04-09T00:17:10;102601.94;;;7.75;100.00
20043;BME280;10182;52.896;6.496;2023-04-09T00:22:12;102609.00;;;7.70;100.00
20043;BME280;10182;52.896;6.496;2023-04-09T00:27:15;102606.31;;;7.75;100.00
20043;BME280;10182;52.896;6.496;2023-04-09T00:32:17;102603.69;;;7.73;100.00
20043;BME280;10182;52.896;6.496;2023-04-09T00:37:19;102598.47;;;7.67;100.00
20043;BME280;10182;52.896;6.496;2023-04-09T00:42:22;102603.81;;;7.53;100.00
20043;BME280;10182;52.896;6.496;2023-04-09T00:47:24;102593.25;;;7.58;100.00
20043;BME280;10182;52.896;6.496;2023-04-09T00:52:26;102588.00;;;7.49;100.00
20043;BME280;10182;52.896;6.496;2023-04-09T00:57:31;102588.88;;;7.48;100.00
20043;BME280;10182;52.896;6.496;2023-04-09T01:02:33;102584.53;;;7.39;100.00
20043;BME280;10182;52.896;6.496;2023-04-09T01:07:44;102577.50;;;7.36;100.00
20043;BME280;10182;52.896;6.496;2023-04-09T01:12:59;102576.56;;;7.53;100.00
20043;BME280;10182;52.896;6.496;2023-04-09T01:18:06;102570.44;;;7.44;100.00
20043;BME280;10182;52.896;6.496;2023-04-09T01:23:16;102567.78;;;7.48;100.00
20043;BME280;10182;52.896;6.496;2023-04-09T01:28:22;102570.47;;;7.41;100.00
20043;BME280;10182;52.896;6.496;2023-04-09T01:33:28;102568.69;;;7.45;100.00
20043;BME280;10182;52.896;6.496;2023-04-09T01:38:32;102574.88;;;7.33;100.00
20043;BME280;10182;52.896;6.496;2023-04-09T01:43:37;102561.72;;;7.24;100.00
20043;BME280;10182;52.896;6.496;2023-04-09T01:48:39;102562.63;;;7.18;100.00
20043;BME280;10182;52.896;6.496;2023-04-09T01:53:41;102558.22;;;7.25;100.00
20043;BME280;10182;52.896;6.496;2023-04-09T01:58:44;102560.88;;;7.23;100.00
20043;BME280;10182;52.896;6.496;2023-04-09T02:03:50;102562.66;;;7.14;100.00
20043;BME280;10182;52.896;6.496;2023-04-09T02:08:53;102556.53;;;7.10;100.00
20043;BME280;10182;52.896;6.496;2023-04-09T02:13:59;102562.66;;;7.17;100.00
20043;BME280;10182;52.896;6.496;2023-04-09T02:19:02;102545.97;;;7.13;100.00
20043;BME280;10182;52.896;6.496;2023-04-09T02:24:04;102553.88;;;7.10;100.00
20043;BME280;10182;52.896;6.496;2023-04-09T02:29:07;102549.47;;;7.09;100.00
20043;BME280;10182;52.896;6.496;2023-04-09T02:34:08;102544.22;;;7.10;100.00
20043;BME280;10182;52.896;6.496;2023-04-09T02:39:10;102541.59;;;7.04;100.00
20043;BME280;10182;52.896;6.496;2023-04-09T02:44:13;102543.34;;;7.07;100.00
20043;BME280;10182;52.896;6.496;2023-04-09T02:49:15;102541.59;;;7.06;100.00
20043;BME280;10182;52.896;6.496;2023-04-09T02:54:16;102538.97;;;7.03;100.00
20043;BME280;10182;52.896;6.496;2023-04-09T02:59:19;102526.66;;;7.09;100.00
20043;BME280;10182;52.896;6.496;2023-04-09T03:04:21;102529.28;;;7.05;100.00
20043;BME280;10182;52.896;6.496;2023-04-09T03:09:23;102527.56;;;7.01;100.00
20043;BME280;10182;52.896;6.496;2023-04-09T03:14:26;102534.59;;;6.99;100.00
20043;BME280;10182;52.896;6.496;2023-04-09T03:19:29;102531.09;;;6.97;100.00
20043;BME280;10182;52.896;6.496;2023-04-09T03:24:31;102525.81;;;6.98;100.00
20043;BME280;10182;52.896;6.496;2023-04-09T03:29:34;102529.34;;;6.92;100.00
20043;BME280;10182;52.896;6.496;2023-04-09T03:34:36;102526.72;;;6.88;100.00
20043;BME280;10182;52.896;6.496;2023-04-09T03:39:38;102522.34;;;6.93;100.00
20043;BME280;10182;52.896;6.496;2023-04-09T03:44:41;102517.91;;;6.89;100.00
20043;BME280;10182;52.896;6.496;2023-04-09T03:49:42;102518.78;;;6.94;100.00
20043;BME280;10182;52.896;6.496;2023-04-09T03:54:44;102519.72;;;6.82;100.00
20043;BME280;10182;52.896;6.496;2023-04-09T03:59:47;102512.69;;;6.81;100.00
20043;BME280;10182;52.896;6.496;2023-04-09T04:04:49;102514.44;;;6.81;100.00
20043;BME280;10182;52.896;6.496;2023-04-09T04:09:51;102509.19;;;6.84;100.00
20043;BME280;10182;52.896;6.496;2023-04-09T04:14:55;102511.81;;;6.82;100.00
20043;BME280;10182;52.896;6.496;2023-04-09T04:19:56;102506.56;;;6.82;100.00
20043;BME280;10182;52.896;6.496;2023-04-09T04:24:58;102511.84;;;6.71;100.00
20043;BME280;10182;52.896;6.496;2023-04-09T04:30:01;102510.09;;;6.64;100.00
20043;BME280;10182;52.896;6.496;2023-04-09T04:35:03;102517.09;;;6.67;100.00
20043;BME280;10182;52.896;6.496;2023-04-09T04:40:06;102517.09;;;6.73;100.00
20043;BME280;10182;52.896;6.496;2023-04-09T04:45:10;102523.28;;;6.66;100.00
20043;BME280;10182;52.896;6.496;2023-04-09T04:50:11;102515.31;;;6.75;100.00
20043;BME280;10182;52.896;6.496;2023-04-09T04:55:13;102514.44;;;6.81;100.00
20043;BME280;10182;52.896;6.496;2023-04-09T05:00:16;102517.97;;;6.75;100.00
20043;BME280;10182;52.896;6.496;2023-04-09T05:05:19;102511.84;;;6.70;100.00
20043;BME280;10182;52.896;6.496;2023-04-09T05:10:21;102517.06;;;6.81;100.00
20043;BME280;10182;52.896;6.496;2023-04-09T05:15:24;102514.47;;;6.82;100.00
20043;BME280;10182;52.896;6.496;2023-04-09T05:20:26;102514.44;;;6.79;100.00
20043;BME280;10182;52.896;6.496;2023-04-09T05:25:28;102516.19;;;6.83;100.00
20043;BME280;10182;52.896;6.496;2023-04-09T05:30:31;102521.44;;;6.85;100.00
20043;BME280;10182;52.896;6.496;2023-04-09T05:35:33;102512.69;;;6.90;100.00
20043;BME280;10182;52.896;6.496;2023-04-09T05:40:38;102512.66;;;6.93;100.00
20043;BME280;10182;52.896;6.496;2023-04-09T05:45:42;102497.72;;;6.97;100.00
20043;BME280;10182;52.896;6.496;2023-04-09T05:50:48;102502.09;;;7.01;100.00
20043;BME280;10182;52.896;6.496;2023-04-09T05:55:51;102511.75;;;6.99;100.00
20043;BME280;10182;52.896;6.496;2023-04-09T06:00:54;102508.19;;;7.08;100.00
20043;BME280;10182;52.896;6.496;2023-04-09T06:05:56;102508.22;;;7.05;100.00
20043;BME280;10182;52.896;6.496;2023-04-09T06:10:58;102511.69;;;7.15;100.00
20043;BME280;10182;52.896;6.496;2023-04-09T06:16:02;102516.09;;;7.14;100.00
20043;BME280;10182;52.896;6.496;2023-04-09T06:21:05;102513.47;;;7.11;100.00
20043;BME280;10182;52.896;6.496;2023-04-09T06:26:07;102516.97;;;7.11;100.00
20043;BME280;10182;52.896;6.496;2023-04-09T06:31:10;102518.69;;;7.19;100.00
20043;BME280;10182;52.896;6.496;2023-04-09T06:36:12;102521.34;;;7.23;100.00
20043;BME280;10182;52.896;6.496;2023-04-09T06:41:14;102518.66;;;7.28;100.00
20043;BME280;10182;52.896;6.496;2023-04-09T06:46:17;102515.16;;;7.29;100.00
20043;BME280;10182;52.896;6.496;2023-04-09T06:51:20;102513.38;;;7.29;100.00
20043;BME280;10182;52.896;6.496;2023-04-09T06:56:22;102516.88;;;7.35;100.00
20043;BME280;10182;52.896;6.496;2023-04-09T07:01:25;102526.53;;;7.37;100.00
20043;BME280;10182;52.896;6.496;2023-04-09T07:06:27;102523.00;;;7.40;100.00
20043;BME280;10182;52.896;6.496;2023-04-09T07:11:29;102520.38;;;7.40;100.00
20043;BME280;10182;52.896;6.496;2023-04-09T07:16:32;102531.78;;;7.47;100.00
20043;BME280;10182;52.896;6.496;2023-04-09T07:21:33;102525.63;;;7.43;100.00
20043;BME280;10182;52.896;6.496;2023-04-09T07:26:35;102538.72;;;7.58;100.00
20043;BME280;10182;52.896;6.496;2023-04-09T07:31:38;102543.09;;;7.62;100.00
20043;BME280;10182;52.896;6.496;2023-04-09T07:36:40;102545.66;;;7.78;100.00
20043;BME280;10182;52.896;6.496;2023-04-09T07:41:42;102537.69;;;7.89;100.00
20043;BME280;10182;52.896;6.496;2023-04-09T07:46:45;102531.44;;;7.97;100.00
20043;BME280;10182;52.896;6.496;2023-04-09T07:51:46;102530.47;;;8.09;100.00
20043;BME280;10182;52.896;6.496;2023-04-09T07:56:48;102534.84;;;8.15;100.00
20043;BME280;10182;52.896;6.496;2023-04-09T08:01:51;102528.59;;;8.24;100.00
20043;BME280;10182;52.896;6.496;2023-04-09T08:06:53;102532.13;;;8.24;100.00
20043;BME280;10182;52.896;6.496;2023-04-09T08:11:55;102537.22;;;8.43;100.00
20043;BME280;10182;52.896;6.496;2023-04-09T08:16:58;102529.22;;;8.55;100.00
20043;BME280;10182;52.896;6.496;2023-04-09T08:22:00;102528.22;;;8.67;100.00
20043;BME280;10182;52.896;6.496;2023-04-09T08:27:02;102530.91;;;8.66;100.00
20043;BME280;10182;52.896;6.496;2023-04-09T08:32:05;102527.16;;;8.85;100.00
20043;BME280;10182;52.896;6.496;2023-04-09T08:37:07;102529.69;;;8.96;100.00
20043;BME280;10182;52.896;6.496;2023-04-09T08:42:10;102528.66;;;9.09;100.00
20043;BME280;10182;52.896;6.496;2023-04-09T08:47:13;102530.25;;;9.21;100.00
20043;BME280;10182;52.896;6.496;2023-04-09T08:52:16;102533.97;;;9.05;100.00
20043;BME280;10182;52.896;6.496;2023-04-09T08:57:21;102521.47;;;9.19;100.00
20043;BME280;10182;52.896;6.496;2023-04-09T09:02:24;102522.97;;;9.39;100.00
20043;BME280;10182;52.896;6.496;2023-04-09T09:07:27;102518.41;;;9.52;100.00
20043;BME280;10182;52.896;6.496;2023-04-09T09:12:33;102526.97;;;9.68;100.00
20043;BME280;10182;52.896;6.496;2023-04-09T09:17:52;102521.66;;;9.71;100.00
20043;BME280;10182;52.896;6.496;2023-04-09T09:22:55;102513.50;;;9.85;100.00
20043;BME280;10182;52.896;6.496;2023-04-09T09:28:06;102515.56;;;10.22;100.00
20043;BME280;10182;52.896;6.496;2023-04-09T09:33:10;102501.97;;;10.43;100.00
20043;BME280;10182;52.896;6.496;2023-04-09T09:38:11;102500.88;;;10.54;100.00
20043;BME280;10182;52.896;6.496;2023-04-09T09:43:15;102499.44;;;10.82;100.00
20043;BME280;10182;52.896;6.496;2023-04-09T09:48:18;102495.78;;;10.90;100.00
20043;BME280;10182;52.896;6.496;2023-04-09T09:53:21;102483.94;;;11.08;100.00
20043;BME280;10182;52.896;6.496;2023-04-09T09:58:31;102487.88;;;10.88;100.00
20043;BME280;10182;52.896;6.496;2023-04-09T10:03:37;102483.91;;;11.09;100.00
20043;BME280;10182;52.896;6.496;2023-04-09T10:08:41;102484.50;;;11.24;100.00
20043;BME280;10182;52.896;6.496;2023-04-09T10:13:49;102484.41;;;11.27;100.00
20043;BME280;10182;52.896;6.496;2023-04-09T10:18:52;102474.47;;;11.37;100.00
20043;BME280;10182;52.896;6.496;2023-04-09T10:23:54;102473.66;;;11.33;100.00
20043;BME280;10182;52.896;6.496;2023-04-09T10:29:03;102464.66;;;11.40;100.00
20043;BME280;10182;52.896;6.496;2023-04-09T10:34:08;102455.16;;;11.69;100.00
20043;BME280;10182;52.896;6.496;2023-04-09T10:39:11;102457.69;;;11.74;100.00
20043;BME280;10182;52.896;6.496;2023-04-09T10:44:20;102448.38;;;11.93;100.00
20043;BME280;10182;52.896;6.496;2023-04-09T10:49:24;102451.75;;;11.62;100.00
20043;BME280;10182;52.896;6.496;2023-04-09T10:54:43;102438.00;;;11.82;100.00
20043;BME280;10182;52.896;6.496;2023-04-09T10:59:48;102432.31;;;12.32;100.00
20043;BME280;10182;52.896;6.496;2023-04-09T11:05:05;102431.69;;;12.23;100.00
20043;BME280;10182;52.896;6.496;2023-04-09T11:10:11;102426.63;;;12.13;100.00
20043;BME280;10182;52.896;6.496;2023-04-09T11:15:16;102422.19;;;12.12;100.00
20043;BME280;10182;52.896;6.496;2023-04-09T11:20:21;102410.19;;;12.32;100.00
20043;BME280;10182;52.896;6.496;2023-04-09T11:25:24;102403.28;;;12.58;100.00
20043;BME280;10182;52.896;6.496;2023-04-09T11:30:27;102405.28;;;12.79;100.00
20043;BME280;10182;52.896;6.496;2023-04-09T11:35:33;102394.34;;;12.60;100.00
20043;BME280;10182;52.896;6.496;2023-04-09T11:40:37;102388.41;;;12.80;100.00
20043;BME280;10182;52.896;6.496;2023-04-09T11:45:45;102400.06;;;13.06;100.00
20043;BME280;10182;52.896;6.496;2023-04-09T11:50:49;102394.88;;;13.01;100.00
20043;BME280;10182;52.896;6.496;2023-04-09T11:55:52;102389.00;;;12.90;100.00
20043;BME280;10182;52.896;6.496;2023-04-09T12:00:57;102381.97;;;12.89;100.00
20043;BME280;10182;52.896;6.496;2023-04-09T12:06:01;102390.16;;;12.81;100.00
20043;BME280;10182;52.896;6.496;2023-04-09T12:11:07;102375.50;;;13.26;100.00
20043;BME280;10182;52.896;6.496;2023-04-09T12:16:12;102376.28;;;13.28;100.00
20043;BME280;10182;52.896;6.496;2023-04-09T12:21:16;102378.38;;;13.18;100.00
20043;BME280;10182;52.896;6.496;2023-04-09T12:26:17;102363.28;;;13.47;100.00
20043;BME280;10182;52.896;6.496;2023-04-09T12:31:20;102368.75;;;13.69;100.00
20043;BME280;10182;52.896;6.496;2023-04-09T12:36:26;102361.53;;;13.73;100.00
20043;BME280;10182;52.896;6.496;2023-04-09T12:41:27;102362.50;;;13.97;100.00
20043;BME280;10182;52.896;6.496;2023-04-09T12:46:29;102362.19;;;13.54;100.00
20043;BME280;10182;52.896;6.496;2023-04-09T12:51:32;102359.97;;;13.93;100.00
20043;BME280;10182;52.896;6.496;2023-04-09T12:56:34;102368.34;;;13.82;100.00
20043;BME280;10182;52.896;6.496;2023-04-09T13:01:36;102361.28;;;13.81;100.00
20043;BME280;10182;52.896;6.496;2023-04-09T13:06:39;102345.78;;;13.92;100.00
20043;BME280;10182;52.896;6.496;2023-04-09T13:11:41;102342.34;;;13.90;100.00
20043;BME280;10182;52.896;6.496;2023-04-09T13:16:43;102339.56;;;13.93;100.00
20043;BME280;10182;52.896;6.496;2023-04-09T13:21:46;102353.19;;;13.84;100.00
20043;BME280;10182;52.896;6.496;2023-04-09T13:26:48;102344.84;;;13.68;100.00
20043;BME280;10182;52.896;6.496;2023-04-09T13:31:49;102331.03;;;13.57;100.00
20043;BME280;10182;52.896;6.496;2023-04-09T13:36:52;102325.53;;;13.63;100.00
20043;BME280;10182;52.896;6.496;2023-04-09T13:41:54;102319.97;;;13.69;100.00
20043;BME280;10182;52.896;6.496;2023-04-09T13:46:56;102323.19;;;13.79;100.00
20043;BME280;10182;52.896;6.496;2023-04-09T13:51:59;102311.22;;;13.65;100.00
20043;BME280;10182;52.896;6.496;2023-04-09T13:57:01;102308.78;;;13.59;100.00
20043;BME280;10182;52.896;6.496;2023-04-09T14:02:03;102314.00;;;13.87;100.00
20043;BME280;10182;52.896;6.496;2023-04-09T14:07:06;102310.38;;;13.90;100.00
20043;BME280;10182;52.896;6.496;2023-04-09T14:12:08;102306.28;;;13.80;100.00
20043;BME280;10182;52.896;6.496;2023-04-09T14:17:10;102308.50;;;13.92;100.00
20043;BME280;10182;52.896;6.496;2023-04-09T14:22:13;102301.03;;;14.02;100.00
20043;BME280;10182;52.896;6.496;2023-04-09T14:27:14;102296.44;;;13.82;100.00
20043;BME280;10182;52.896;6.496;2023-04-09T14:32:16;102295.63;;;13.80;100.00
20043;BME280;10182;52.896;6.496;2023-04-09T14:37:19;102292.03;;;13.56;100.00
20043;BME280;10182;52.896;6.496;2023-04-09T14:42:21;102281.19;;;13.62;100.00
20043;BME280;10182;52.896;6.496;2023-04-09T14:47:23;102279.03;;;13.46;100.00
20043;BME280;10182;52.896;6.496;2023-04-09T14:52:26;102272.16;;;13.66;100.00
20043;BME280;10182;52.896;6.496;2023-04-09T14:57:29;102254.31;;;13.68;100.00
20043;BME280;10182;52.896;6.496;2023-04-09T15:02:32;102249.88;;;13.68;100.00
20043;BME280;10182;52.896;6.496;2023-04-09T15:07:35;102244.56;;;13.68;100.00
20043;BME280;10182;52.896;6.496;2023-04-09T15:12:37;102248.41;;;13.60;100.00
20043;BME280;10182;52.896;6.496;2023-04-09T15:17:39;102243.53;;;13.73;100.00
20043;BME280;10182;52.896;6.496;2023-04-09T15:22:42;102233.25;;;14.11;100.00
20043;BME280;10182;52.896;6.496;2023-04-09T15:27:44;102231.88;;;14.22;100.00
20043;BME280;10182;52.896;6.496;2023-04-09T15:32:46;102234.16;;;14.10;100.00
20043;BME280;10182;52.896;6.496;2023-04-09T15:37:49;102230.63;;;13.85;100.00
20043;BME280;10182;52.896;6.496;2023-04-09T15:42:51;102219.94;;;13.62;100.00
20043;BME280;10182;52.896;6.496;2023-04-09T15:47:52;102218.84;;;13.67;100.00
20043;BME280;10182;52.896;6.496;2023-04-09T15:52:55;102213.00;;;13.58;100.00
20043;BME280;10182;52.896;6.496;2023-04-09T15:57:57;102209.19;;;13.40;100.00
20043;BME280;10182;52.896;6.496;2023-04-09T16:02:59;102192.63;;;13.30;100.00
20043;BME280;10182;52.896;6.496;2023-04-09T16:08:02;102189.94;;;13.31;100.00
20043;BME280;10182;52.896;6.496;2023-04-09T16:13:04;102179.44;;;13.27;100.00
20043;BME280;10182;52.896;6.496;2023-04-09T16:18:06;102170.09;;;13.42;100.00
20043;BME280;10182;52.896;6.496;2023-04-09T16:23:10;102170.72;;;13.48;100.00
20043;BME280;10182;52.896;6.496;2023-04-09T16:28:12;102178.31;;;13.59;100.00
20043;BME280;10182;52.896;6.496;2023-04-09T16:33:14;102184.34;;;13.64;100.00
20043;BME280;10182;52.896;6.496;2023-04-09T16:38:17;102174.09;;;13.53;100.00
20043;BME280;10182;52.896;6.496;2023-04-09T16:43:19;102177.09;;;13.44;100.00
20043;BME280;10182;52.896;6.496;2023-04-09T16:48:21;102170.31;;;13.34;100.00
20043;BME280;10182;52.896;6.496;2023-04-09T16:53:24;102168.06;;;13.23;100.00
20043;BME280;10182;52.896;6.496;2023-04-09T16:58:26;102173.75;;;13.12;100.00
20043;BME280;10182;52.896;6.496;2023-04-09T17:03:28;102182.75;;;13.08;100.00
20043;BME280;10182;52.896;6.496;2023-04-09T17:08:31;102181.13;;;13.04;100.00
20043;BME280;10182;52.896;6.496;2023-04-09T17:13:33;102185.06;;;12.92;100.00
20043;BME280;10182;52.896;6.496;2023-04-09T17:18:35;102184.75;;;12.75;100.00
20043;BME280;10182;52.896;6.496;2023-04-09T17:23:39;102173.31;;;12.73;100.00
20043;BME280;10182;52.896;6.496;2023-04-09T17:28:41;102178.75;;;12.68;100.00
20043;BME280;10182;52.896;6.496;2023-04-09T17:33:45;102184.59;;;12.52;100.00
20043;BME280;10182;52.896;6.496;2023-04-09T17:38:49;102180.56;;;12.39;100.00
20043;BME280;10182;52.896;6.496;2023-04-09T17:43:52;102188.78;;;12.31;100.00
20043;BME280;10182;52.896;6.496;2023-04-09T17:48:54;102177.78;;;12.15;100.00
20043;BME280;10182;52.896;6.496;2023-04-09T17:53:57;102176.25;;;12.07;100.00
20043;BME280;10182;52.896;6.496;2023-04-09T17:58:59;102193.47;;;11.92;100.00
20043;BME280;10182;52.896;6.496;2023-04-09T18:04:01;102187.59;;;11.80;100.00
20043;BME280;10182;52.896;6.496;2023-04-09T18:09:04;102185.50;;;11.62;100.00
20043;BME280;10182;52.896;6.496;2023-04-09T18:14:05;102185.75;;;11.52;100.00
20043;BME280;10182;52.896;6.496;2023-04-09T18:19:07;102183.53;;;11.35;100.00
20043;BME280;10182;52.896;6.496;2023-04-09T18:24:12;102182.34;;;11.14;100.00
20043;BME280;10182;52.896;6.496;2023-04-09T18:29:14;102184.63;;;10.94;100.00
20043;BME280;10182;52.896;6.496;2023-04-09T18:34:16;102190.25;;;10.81;100.00
20043;BME280;10182;52.896;6.496;2023-04-09T18:39:19;102179.75;;;10.77;100.00
20043;BME280;10182;52.896;6.496;2023-04-09T18:44:22;102180.78;;;10.71;100.00
20043;BME280;10182;52.896;6.496;2023-04-09T18:49:23;102184.56;;;10.61;100.00
20043;BME280;10182;52.896;6.496;2023-04-09T18:54:27;102183.09;;;10.47;100.00
20043;BME280;10182;52.896;6.496;2023-04-09T18:59:29;102188.44;;;10.46;100.00
20043;BME280;10182;52.896;6.496;2023-04-09T19:04:31;102183.38;;;10.35;100.00
20043;BME280;10182;52.896;6.496;2023-04-09T19:09:36;102184.41;;;10.26;100.00
20043;BME280;10182;52.896;6.496;2023-04-09T19:14:38;102184.41;;;10.26;100.00
20043;BME280;10182;52.896;6.496;2023-04-09T19:19:40;102186.31;;;10.21;100.00
20043;BME280;10182;52.896;6.496;2023-04-09T19:24:43;102199.88;;;10.06;100.00
20043;BME280;10182;52.896;6.496;2023-04-09T19:29:45;102196.41;;;10.04;100.00
20043;BME280;10182;52.896;6.496;2023-04-09T19:34:47;102199.09;;;10.02;100.00
20043;BME280;10182;52.896;6.496;2023-04-09T19:39:50;102200.25;;;9.89;100.00
20043;BME280;10182;52.896;6.496;2023-04-09T19:44:52;102197.00;;;9.74;100.00
20043;BME280;10182;52.896;6.496;2023-04-09T19:49:53;102197.94;;;9.70;100.00
20043;BME280;10182;52.896;6.496;2023-04-09T19:54:57;102195.44;;;9.64;100.00
20043;BME280;10182;52.896;6.496;2023-04-09T19:59:59;102194.63;;;9.60;100.00
20043;BME280;10182;52.896;6.496;2023-04-09T20:05:00;102192.16;;;9.51;100.00
20043;BME280;10182;52.896;6.496;2023-04-09T20:10:04;102181.69;;;9.45;100.00
20043;BME280;10182;52.896;6.496;2023-04-09T20:15:08;102182.69;;;9.39;100.00
20043;BME280;10182;52.896;6.496;2023-04-09T20:20:10;102188.97;;;9.34;100.00
20043;BME280;10182;52.896;6.496;2023-04-09T20:25:13;102175.78;;;9.30;100.00
20043;BME280;10182;52.896;6.496;2023-04-09T20:30:15;102168.91;;;9.22;100.00
20043;BME280;10182;52.896;6.496;2023-04-09T20:35:17;102172.56;;;9.14;100.00
20043;BME280;10182;52.896;6.496;2023-04-09T20:40:20;102169.16;;;9.08;100.00
20043;BME280;10182;52.896;6.496;2023-04-09T20:45:22;102168.34;;;9.04;100.00
20043;BME280;10182;52.896;6.496;2023-04-09T20:50:23;102162.41;;;8.90;100.00
20043;BME280;10182;52.896;6.496;2023-04-09T20:55:26;102159.78;;;8.88;100.00
20043;BME280;10182;52.896;6.496;2023-04-09T21:00:28;102154.47;;;8.91;100.00
20043;BME280;10182;52.896;6.496;2023-04-09T21:05:30;102149.22;;;8.88;100.00
20043;BME280;10182;52.896;6.496;2023-04-09T21:10:34;102148.50;;;8.78;100.00
20043;BME280;10182;52.896;6.496;2023-04-09T21:15:35;102139.78;;;8.73;100.00
20043;BME280;10182;52.896;6.496;2023-04-09T21:20:41;102136.34;;;8.70;100.00
20043;BME280;10182;52.896;6.496;2023-04-09T21:25:45;102139.06;;;8.63;100.00
20043;BME280;10182;52.896;6.496;2023-04-09T21:30:46;102140.88;;;8.61;100.00
20043;BME280;10182;52.896;6.496;2023-04-09T21:35:50;102143.59;;;8.55;100.00
20043;BME280;10182;52.896;6.496;2023-04-09T21:40:53;102141.91;;;8.51;100.00
20043;BME280;10182;52.896;6.496;2023-04-09T21:45:56;102143.72;;;8.44;100.00
20043;BME280;10182;52.896;6.496;2023-04-09T21:50:57;102141.19;;;8.38;100.00
20043;BME280;10182;52.896;6.496;2023-04-09T21:56:00;102138.63;;;8.32;100.00
20043;BME280;10182;52.896;6.496;2023-04-09T22:01:02;102130.75;;;8.30;100.00
20043;BME280;10182;52.896;6.496;2023-04-09T22:06:04;102136.13;;;8.24;100.00
20043;BME280;10182;52.896;6.496;2023-04-09T22:11:10;102137.91;;;8.22;100.00
20043;BME280;10182;52.896;6.496;2023-04-09T22:16:12;102145.03;;;8.16;100.00
20043;BME280;10182;52.896;6.496;2023-04-09T22:21:14;102153.91;;;8.10;100.00
20043;BME280;10182;52.896;6.496;2023-04-09T22:26:17;102147.94;;;7.97;100.00
20043;BME280;10182;52.896;6.496;2023-04-09T22:31:19;102154.19;;;7.91;100.00
20043;BME280;10182;52.896;6.496;2023-04-09T22:36:21;102151.53;;;7.93;100.00
20043;BME280;10182;52.896;6.496;2023-04-09T22:41:24;102141.00;;;7.88;100.00
20043;BME280;10182;52.896;6.496;2023-04-09T22:46:26;102143.72;;;7.84;100.00
20043;BME280;10182;52.896;6.496;2023-04-09T22:51:28;102144.78;;;7.69;100.00
20043;BME280;10182;52.896;6.496;2023-04-09T22:56:31;102129.81;;;7.69;100.00
20043;BME280;10182;52.896;6.496;2023-04-09T23:01:33;102137.78;;;7.66;100.00
20043;BME280;10182;52.896;6.496;2023-04-09T23:06:36;102119.34;;;7.65;100.00
20043;BME280;10182;52.896;6.496;2023-04-09T23:11:39;102107.94;;;7.61;100.00
20043;BME280;10182;52.896;6.496;2023-04-09T23:16:40;102096.56;;;7.59;100.00
20043;BME280;10182;52.896;6.496;2023-04-09T23:21:42;102097.59;;;7.45;100.00
20043;BME280;10182;52.896;6.496;2023-04-09T23:26:45;102089.63;;;7.50;100.00
20043;BME280;10182;52.896;6.496;2023-04-09T23:31:47;102085.28;;;7.46;100.00
20043;BME280;10182;52.896;6.496;2023-04-09T23:36:49;102084.41;;;7.45;100.00
20043;BME280;10182;52.896;6.496;2023-04-09T23:41:52;102083.59;;;7.40;100.00
20043;BME280;10182;52.896;6.496;2023-04-09T23:46:54;102076.72;;;7.28;100.00
20043;BME280;10182;52.896;6.496;2023-04-09T23:51:56;102075.00;;;7.23;100.00
20043;BME280;10182;52.896;6.496;2023-04-09T23:56:59;102072.38;;;7.21;100.00
